createdAt,value
2023-03-08T00:01:57.346Z,4.00
2023-03-08T00:04:25.790Z,3.60
2023-03-08T00:06:54.062Z,4.33
2023-03-08T00:09:22.361Z,3.97
2023-03-08T00:11:52.732Z,3.60
2023-03-08T00:14:22.370Z,3.93
2023-03-08T00:16:50.504Z,3.90
2023-03-08T00:19:20.873Z,4.40
2023-03-08T00:21:49.175Z,3.93
2023-03-08T00:24:19.897Z,4.77
2023-03-08T00:26:48.036Z,4.17
2023-03-08T00:29:18.341Z,4.07
2023-03-08T00:31:50.468Z,3.50
2023-03-08T00:34:20.172Z,4.77
2023-03-08T00:36:50.437Z,4.93
2023-03-08T00:39:20.894Z,4.87
2023-03-08T00:41:49.191Z,5.13
2023-03-08T00:44:19.836Z,5.60
2023-03-08T00:46:54.142Z,6.67
2023-03-08T00:49:24.644Z,7.07
2023-03-08T00:51:52.733Z,6.80
2023-03-08T00:54:20.840Z,8.17
2023-03-08T00:56:48.920Z,7.73
2023-03-08T00:59:17.035Z,7.30
2023-03-08T01:01:45.233Z,7.90
2023-03-08T01:04:17.561Z,8.87
2023-03-08T01:06:48.190Z,9.07
2023-03-08T01:09:16.380Z,9.90
2023-03-08T01:11:44.545Z,9.00
2023-03-08T01:14:14.746Z,9.17
2023-03-08T01:16:43.027Z,10.87
2023-03-08T01:19:11.466Z,9.80
2023-03-08T01:21:44.577Z,10.73
2023-03-08T01:24:15.187Z,10.07
2023-03-08T01:26:45.571Z,10.63
2023-03-08T01:29:13.712Z,11.83
2023-03-08T01:31:41.808Z,11.70
2023-03-08T01:34:11.244Z,11.23
2023-03-08T01:36:39.386Z,12.50
2023-03-08T01:39:08.865Z,12.30
2023-03-08T01:41:37.057Z,12.20
2023-03-08T01:44:05.669Z,11.53
2023-03-08T01:46:37.424Z,10.73
2023-03-08T01:49:36.657Z,11.07
2023-03-08T01:52:12.415Z,11.87
2023-03-08T01:54:47.330Z,10.67
2023-03-08T01:57:19.237Z,11.73
2023-03-08T01:59:51.308Z,11.30
2023-03-08T02:02:23.339Z,12.00
2023-03-08T02:04:54.502Z,11.40
2023-03-08T02:07:24.972Z,11.13
2023-03-08T02:09:56.589Z,11.30
2023-03-08T02:12:25.357Z,11.57
2023-03-08T02:14:54.395Z,11.93
2023-03-08T02:17:25.834Z,11.77
2023-03-08T02:20:03.848Z,11.67
2023-03-08T02:22:31.976Z,11.50
2023-03-08T02:25:03.940Z,11.37
2023-03-08T02:27:34.432Z,11.83
2023-03-08T02:30:03.577Z,12.07
2023-03-08T02:32:31.790Z,10.37
2023-03-08T02:35:02.277Z,10.97
2023-03-08T02:37:30.422Z,10.33
2023-03-08T02:39:58.627Z,10.00
2023-03-08T02:42:28.262Z,10.60
2023-03-08T02:44:56.462Z,10.30
2023-03-08T02:47:24.730Z,9.63
2023-03-08T02:49:52.993Z,10.03
2023-03-08T02:52:21.210Z,9.73
2023-03-08T02:54:53.747Z,10.23
2023-03-08T02:57:25.416Z,9.27
2023-03-08T02:59:56.791Z,9.47
2023-03-08T03:02:28.626Z,10.30
2023-03-08T03:05:00.345Z,9.90
2023-03-08T03:07:31.566Z,9.97
2023-03-08T03:10:00.001Z,9.93
2023-03-08T03:12:28.230Z,10.80
2023-03-08T03:14:57.689Z,10.13
2023-03-08T03:17:25.819Z,9.77
2023-03-08T03:19:53.953Z,9.40
2023-03-08T03:22:24.271Z,10.27
2023-03-08T03:24:52.800Z,11.37
2023-03-08T03:27:21.017Z,10.93
2023-03-08T03:29:49.519Z,10.30
2023-03-08T03:32:20.419Z,9.80
2023-03-08T03:34:49.075Z,10.57
2023-03-08T03:37:21.510Z,9.83
2023-03-08T03:39:49.654Z,10.40
2023-03-08T03:42:20.621Z,9.93
2023-03-08T03:44:58.548Z,9.33
2023-03-08T03:47:28.048Z,9.70
2023-03-08T03:49:59.822Z,9.87
2023-03-08T03:52:32.829Z,9.80
2023-03-08T03:55:05.265Z,8.87
2023-03-08T03:57:33.697Z,10.30
2023-03-08T04:00:01.998Z,8.60
2023-03-08T04:02:32.147Z,10.63
2023-03-08T04:05:01.589Z,9.77
2023-03-08T04:07:33.807Z,9.10
2023-03-08T04:10:02.672Z,9.50
2023-03-08T04:12:33.669Z,9.00
2023-03-08T04:15:02.185Z,8.93
2023-03-08T04:17:34.364Z,8.03
2023-03-08T04:20:02.858Z,8.47
2023-03-08T04:22:35.522Z,8.90
2023-03-08T04:25:11.839Z,9.17
2023-03-08T04:27:46.048Z,8.97
2023-03-08T04:30:16.578Z,8.93
2023-03-08T04:32:48.404Z,8.83
2023-03-08T04:35:16.893Z,8.70
2023-03-08T04:37:49.940Z,8.27
2023-03-08T04:40:23.038Z,8.07
2023-03-08T04:42:56.630Z,7.33
2023-03-08T04:45:36.392Z,7.80
2023-03-08T04:48:11.155Z,7.90
2023-03-08T04:50:41.668Z,7.70
2023-03-08T04:53:12.852Z,7.60
2023-03-08T04:55:42.232Z,7.60
2023-03-08T04:58:12.421Z,8.17
2023-03-08T05:00:40.636Z,8.43
2023-03-08T05:03:12.414Z,7.63
2023-03-08T05:05:47.070Z,7.87
2023-03-08T05:08:15.597Z,6.60
2023-03-08T05:10:48.914Z,7.03
2023-03-08T05:13:19.563Z,8.10
2023-03-08T05:15:48.570Z,7.30
2023-03-08T05:18:18.101Z,8.00
2023-03-08T05:20:53.682Z,7.43
2023-03-08T05:23:22.082Z,7.90
2023-03-08T05:25:53.498Z,8.47
2023-03-08T05:28:22.850Z,8.23
2023-03-08T05:30:51.484Z,8.53
2023-03-08T05:33:21.107Z,7.67
2023-03-08T05:35:54.613Z,8.10
2023-03-08T05:38:25.143Z,7.50
2023-03-08T05:40:53.857Z,8.33
2023-03-08T05:43:24.756Z,8.23
2023-03-08T05:45:57.583Z,7.67
2023-03-08T05:48:28.974Z,7.27
2023-03-08T05:50:59.917Z,7.77
2023-03-08T05:53:30.800Z,7.23
2023-03-08T05:55:59.167Z,7.07
2023-03-08T05:58:27.566Z,7.70
2023-03-08T06:00:55.768Z,8.43
2023-03-08T06:03:24.051Z,8.80
2023-03-08T06:05:53.641Z,8.43
2023-03-08T06:08:21.946Z,7.83
2023-03-08T06:10:50.404Z,7.40
2023-03-08T06:13:20.714Z,8.20
2023-03-08T06:15:48.898Z,8.93
2023-03-08T06:18:17.072Z,10.60
2023-03-08T06:20:58.888Z,8.90
2023-03-08T06:23:30.848Z,8.13
2023-03-08T06:25:59.287Z,8.23
2023-03-08T06:28:29.717Z,12.52
2023-03-08T06:30:59.476Z,8.80
2023-03-08T06:33:29.815Z,9.37
2023-03-08T06:36:01.599Z,8.77
2023-03-08T06:38:33.471Z,8.63
2023-03-08T06:41:05.766Z,8.37
2023-03-08T06:43:34.649Z,8.80
2023-03-08T06:46:05.517Z,9.70
2023-03-08T06:48:36.645Z,9.43
2023-03-08T06:51:07.141Z,9.33
2023-03-08T06:53:38.115Z,8.77
2023-03-08T06:56:09.218Z,9.20
2023-03-08T06:58:38.157Z,9.17
2023-03-08T07:01:06.671Z,9.17
2023-03-08T07:03:38.132Z,9.57
2023-03-08T07:06:09.991Z,8.13
2023-03-08T07:08:40.768Z,10.37
2023-03-08T07:11:09.847Z,9.30
2023-03-08T07:13:38.842Z,9.33
2023-03-08T07:16:08.551Z,10.17
2023-03-08T07:18:36.797Z,10.43
2023-03-08T07:21:05.473Z,9.63
2023-03-08T07:23:34.956Z,10.77
2023-03-08T07:26:06.443Z,11.73
2023-03-08T07:28:37.785Z,12.33
2023-03-08T07:31:06.606Z,11.77
2023-03-08T07:33:34.929Z,11.73
2023-03-08T07:36:03.234Z,10.87
2023-03-08T07:38:31.523Z,12.77
2023-03-08T07:41:00.986Z,12.07
2023-03-08T07:43:31.144Z,11.27
2023-03-08T07:46:02.934Z,11.97
2023-03-08T07:48:31.440Z,11.87
2023-03-08T07:51:03.727Z,10.67
2023-03-08T07:53:32.455Z,11.07
2023-03-08T07:56:05.195Z,12.63
2023-03-08T07:58:33.258Z,13.13
2023-03-08T08:01:08.834Z,14.23
2023-03-08T08:03:39.385Z,12.60
2023-03-08T08:06:10.997Z,13.80
2023-03-08T08:08:39.328Z,12.90
2023-03-08T08:11:13.806Z,13.33
2023-03-08T08:13:42.148Z,13.83
2023-03-08T08:16:11.048Z,14.10
2023-03-08T08:18:39.157Z,13.67
2023-03-08T08:21:11.918Z,13.07
2023-03-08T08:23:41.094Z,13.83
2023-03-08T08:26:14.945Z,14.40
2023-03-08T08:28:44.365Z,13.60
2023-03-08T08:31:17.711Z,14.20
2023-03-08T08:33:45.796Z,13.40
2023-03-08T08:36:17.698Z,16.33
2023-03-08T08:38:46.719Z,14.53
2023-03-08T08:41:18.189Z,15.13
2023-03-08T08:43:47.442Z,16.70
2023-03-08T08:46:18.226Z,17.63
2023-03-08T08:48:46.361Z,16.70
2023-03-08T08:51:16.833Z,15.27
2023-03-08T08:53:45.199Z,18.27
2023-03-08T08:56:27.707Z,18.43
2023-03-08T08:59:01.970Z,16.97
2023-03-08T09:01:32.487Z,17.63
2023-03-08T09:04:02.893Z,18.23
2023-03-08T09:06:31.402Z,20.30
2023-03-08T09:09:01.694Z,19.37
2023-03-08T09:11:31.194Z,20.27
2023-03-08T09:14:02.458Z,20.33
2023-03-08T09:16:32.206Z,21.50
2023-03-08T09:19:01.843Z,20.90
2023-03-08T09:21:30.956Z,21.60
2023-03-08T09:24:01.314Z,19.47
2023-03-08T09:26:32.125Z,20.70
2023-03-08T09:29:04.870Z,20.17
2023-03-08T09:31:34.603Z,21.40
2023-03-08T09:34:04.712Z,20.60
2023-03-08T09:36:32.831Z,22.17
2023-03-08T09:39:00.973Z,20.77
2023-03-08T09:41:52.405Z,22.60
2023-03-08T09:44:45.490Z,21.90
2023-03-08T09:47:28.723Z,22.53
2023-03-08T09:50:10.865Z,22.20
2023-03-08T09:52:44.192Z,20.67
2023-03-08T09:55:19.084Z,21.27
2023-03-08T09:57:53.620Z,20.87
2023-03-08T10:00:24.033Z,20.73
2023-03-08T10:03:16.483Z,22.47
2023-03-08T10:05:52.654Z,22.07
2023-03-08T10:08:27.200Z,20.33
2023-03-08T10:11:01.359Z,20.27
2023-03-08T10:13:36.340Z,20.67
2023-03-08T10:16:16.264Z,21.93
2023-03-08T10:18:50.527Z,22.00
2023-03-08T10:21:24.732Z,21.63
2023-03-08T10:24:01.849Z,22.10
2023-03-08T10:26:30.390Z,20.57
2023-03-08T10:28:59.941Z,21.70
2023-03-08T10:31:30.775Z,20.37
2023-03-08T10:34:05.186Z,20.13
2023-03-08T10:36:33.347Z,18.80
2023-03-08T10:39:08.423Z,19.37
2023-03-08T10:41:44.345Z,20.07
2023-03-08T10:44:18.038Z,17.20
2023-03-08T10:46:51.285Z,18.23
2023-03-08T10:49:27.550Z,17.20
2023-03-08T10:51:59.418Z,16.70
2023-03-08T10:54:28.800Z,16.93
2023-03-08T10:56:59.448Z,16.10
2023-03-08T10:59:32.564Z,16.23
2023-03-08T11:02:16.553Z,15.53
2023-03-08T11:04:54.009Z,15.77
2023-03-08T11:07:25.672Z,15.70
2023-03-08T11:09:53.958Z,14.70
2023-03-08T11:12:25.699Z,13.50
2023-03-08T11:14:57.604Z,14.07
2023-03-08T11:17:33.417Z,13.47
2023-03-08T11:20:11.595Z,12.67
2023-03-08T11:22:50.141Z,11.53
2023-03-08T11:25:31.758Z,12.20
2023-03-08T11:28:22.648Z,13.23
2023-03-08T11:31:08.026Z,11.27
2023-03-08T11:34:06.549Z,11.40
2023-03-08T11:36:42.068Z,10.13
2023-03-08T11:39:26.845Z,10.60
2023-03-08T11:42:01.284Z,10.13
2023-03-08T11:44:45.320Z,9.93
2023-03-08T11:47:40.164Z,9.97
2023-03-08T11:50:20.471Z,9.10
2023-03-08T11:53:01.569Z,8.70
2023-03-08T11:55:45.926Z,8.33
2023-03-08T11:58:23.683Z,8.67
2023-03-08T12:01:00.592Z,8.20
2023-03-08T12:03:34.412Z,7.87
2023-03-08T12:06:16.189Z,7.50
2023-03-08T12:08:57.282Z,7.40
2023-03-08T12:11:29.960Z,7.83
2023-03-08T12:14:06.502Z,7.53
2023-03-08T12:16:41.788Z,8.80
2023-03-08T12:19:22.277Z,8.10
2023-03-08T12:21:53.916Z,7.93
2023-03-08T12:24:33.890Z,7.77
2023-03-08T12:27:10.158Z,7.10
2023-03-08T12:29:44.906Z,7.70
2023-03-08T12:32:15.466Z,6.43
2023-03-08T12:34:47.045Z,6.63
2023-03-08T12:37:26.461Z,6.53
2023-03-08T12:40:00.571Z,6.10
2023-03-08T12:42:34.253Z,6.77
2023-03-08T12:45:30.933Z,6.37
2023-03-08T12:48:09.616Z,6.13
2023-03-08T12:50:47.250Z,6.40
2023-03-08T12:53:46.616Z,6.20
2023-03-08T12:56:29.829Z,6.27
2023-03-08T12:59:00.349Z,6.07
2023-03-08T13:01:37.970Z,6.20
2023-03-08T13:04:07.595Z,5.53
2023-03-08T13:07:26.870Z,5.77
2023-03-08T13:10:07.551Z,4.50
2023-03-08T13:12:54.428Z,5.23
2023-03-08T13:15:25.649Z,5.63
2023-03-08T13:18:00.373Z,5.80
2023-03-08T13:20:42.375Z,5.40
2023-03-08T13:23:24.066Z,5.37
2023-03-08T13:26:03.302Z,4.77
2023-03-08T13:28:46.520Z,5.37
2023-03-08T13:31:33.426Z,4.40
2023-03-08T13:34:04.361Z,5.30
2023-03-08T13:36:34.334Z,4.83
2023-03-08T13:39:07.095Z,4.93
2023-03-08T13:41:37.027Z,4.43
2023-03-08T13:44:09.501Z,5.13
2023-03-08T13:46:42.533Z,4.60
2023-03-08T13:49:19.371Z,4.33
2023-03-08T13:51:50.248Z,4.23
2023-03-08T13:54:29.397Z,4.50
2023-03-08T13:56:58.720Z,4.30
2023-03-08T13:59:27.823Z,4.23
2023-03-08T14:01:56.963Z,5.13
2023-03-08T14:04:28.011Z,3.83
2023-03-08T14:06:58.016Z,3.87
2023-03-08T14:09:28.999Z,3.30
2023-03-08T14:12:04.358Z,3.90
2023-03-08T14:14:37.814Z,3.60
2023-03-08T14:17:06.363Z,4.20
2023-03-08T14:19:36.775Z,3.37
2023-03-08T14:22:14.238Z,3.27
2023-03-08T14:24:49.847Z,3.27
2023-03-08T14:27:37.812Z,3.20
2023-03-08T14:30:14.810Z,3.20
2023-03-08T14:33:01.731Z,3.17
2023-03-08T14:35:32.323Z,2.60
2023-03-08T14:38:04.724Z,2.40
2023-03-08T14:40:49.323Z,2.77
2023-03-08T14:43:24.548Z,2.60
2023-03-08T14:46:02.003Z,2.27
2023-03-08T14:48:34.158Z,2.80
2023-03-08T14:51:05.125Z,2.87
2023-03-08T14:53:35.323Z,2.97
2023-03-08T14:56:08.854Z,2.63
2023-03-08T14:58:40.738Z,2.83
2023-03-08T15:01:09.161Z,3.20
2023-03-08T15:03:39.833Z,3.03
2023-03-08T15:06:15.721Z,2.73
2023-03-08T15:08:44.216Z,2.60
2023-03-08T15:11:13.774Z,2.77
2023-03-08T15:13:45.986Z,2.27
2023-03-08T15:16:16.471Z,2.57
2023-03-08T15:18:44.609Z,2.33
2023-03-08T15:21:15.182Z,2.80
2023-03-08T15:23:47.505Z,2.40
2023-03-08T15:26:24.610Z,2.10
2023-03-08T15:28:52.755Z,2.80
2023-03-08T15:31:21.773Z,1.93
2023-03-08T15:33:52.208Z,2.40
2023-03-08T15:36:20.688Z,3.50
2023-03-08T15:38:49.546Z,3.67
2023-03-08T15:41:21.580Z,3.63
2023-03-08T15:43:49.681Z,3.77
2023-03-08T15:46:20.147Z,3.70
2023-03-08T15:48:50.907Z,2.90
2023-03-08T15:51:25.350Z,2.63
2023-03-08T15:53:53.551Z,2.77
2023-03-08T15:56:25.924Z,3.37
2023-03-08T15:58:56.834Z,3.30
2023-03-08T16:01:28.339Z,3.23
2023-03-08T16:03:58.070Z,3.10
2023-03-08T16:06:30.230Z,4.00
2023-03-08T16:08:58.734Z,3.90
2023-03-08T16:11:28.569Z,3.33
2023-03-08T16:13:57.416Z,2.80
2023-03-08T16:16:38.469Z,3.10
2023-03-08T16:19:12.702Z,3.00
2023-03-08T16:21:40.851Z,3.30
2023-03-08T16:24:09.033Z,3.37
2023-03-08T16:26:38.549Z,3.40
2023-03-08T16:29:06.681Z,3.67
2023-03-08T16:31:35.685Z,3.30
2023-03-08T16:34:04.881Z,3.60
2023-03-08T16:36:33.253Z,3.30
2023-03-08T16:39:04.071Z,4.40
2023-03-08T16:41:34.196Z,3.30
2023-03-08T16:44:03.671Z,3.03
2023-03-08T16:46:31.877Z,3.30
2023-03-08T16:49:00.498Z,3.30
2023-03-08T16:51:30.575Z,2.83
2023-03-08T16:53:58.756Z,3.50
2023-03-08T16:56:28.664Z,2.97
2023-03-08T16:59:00.950Z,2.93
2023-03-08T17:01:33.129Z,3.10
2023-03-08T17:04:03.688Z,2.90
2023-03-08T17:06:34.438Z,2.70
2023-03-08T17:09:02.936Z,2.63
2023-03-08T17:11:35.729Z,3.23
2023-03-08T17:14:06.703Z,3.23
2023-03-08T17:16:37.171Z,2.77
2023-03-08T17:19:09.977Z,3.30
2023-03-08T17:21:40.577Z,3.07
2023-03-08T17:24:13.438Z,3.57
2023-03-08T17:26:44.086Z,4.03
2023-03-08T17:29:15.108Z,3.70
2023-03-08T17:31:44.668Z,4.00
2023-03-08T17:34:12.853Z,4.03
2023-03-08T17:36:41.250Z,4.33
2023-03-08T17:39:09.768Z,4.70
2023-03-08T17:41:40.208Z,5.23
2023-03-08T17:44:08.448Z,4.27
2023-03-08T17:46:39.382Z,4.47
2023-03-08T17:49:13.169Z,4.97
2023-03-08T17:51:42.536Z,4.97
2023-03-08T17:54:12.809Z,4.93
2023-03-08T17:56:41.936Z,4.07
2023-03-08T17:59:15.652Z,4.73
2023-03-08T18:01:44.601Z,4.83
2023-03-08T18:04:14.303Z,4.80
2023-03-08T18:06:45.542Z,5.23
2023-03-08T18:09:17.587Z,5.47
2023-03-08T18:11:49.074Z,4.90
2023-03-08T18:14:24.299Z,5.17
2023-03-08T18:16:54.408Z,5.83
2023-03-08T18:19:24.457Z,5.37
2023-03-08T18:21:55.034Z,5.47
2023-03-08T18:24:23.475Z,5.70
2023-03-08T18:26:52.318Z,5.40
2023-03-08T18:29:20.644Z,5.33
2023-03-08T18:31:52.970Z,4.83
2023-03-08T18:34:21.229Z,5.13
2023-03-08T18:36:50.754Z,5.53
2023-03-08T18:39:21.534Z,5.10
2023-03-08T18:41:53.836Z,5.63
2023-03-08T18:44:21.963Z,6.43
2023-03-08T18:46:50.391Z,5.80
2023-03-08T18:49:18.603Z,5.40
2023-03-08T18:51:50.822Z,6.40
2023-03-08T18:54:20.701Z,5.97
2023-03-08T18:56:53.607Z,6.47
2023-03-08T18:59:22.714Z,6.83
2023-03-08T19:01:51.083Z,7.40
2023-03-08T19:04:19.447Z,6.30
2023-03-08T19:06:47.707Z,6.90
2023-03-08T19:09:19.780Z,6.27
2023-03-08T19:11:48.308Z,6.67
2023-03-08T19:14:17.821Z,7.43
2023-03-08T19:20:41.055Z,7.40
2023-03-08T19:23:12.311Z,7.60
2023-03-08T19:25:55.757Z,8.07
2023-03-08T19:28:23.942Z,7.57
2023-03-08T19:30:52.180Z,7.10
2023-03-08T19:33:31.400Z,7.80
2023-03-08T19:36:00.436Z,12.55
2023-03-08T19:38:28.704Z,10.23
2023-03-08T19:40:58.243Z,9.80
2023-03-08T19:43:26.369Z,9.50
2023-03-08T19:45:54.537Z,8.90
2023-03-08T19:48:23.008Z,9.40
2023-03-08T19:50:51.234Z,9.90
2023-03-08T19:53:22.876Z,9.97
2023-03-08T19:55:51.346Z,9.40
2023-03-08T19:58:24.311Z,10.13
2023-03-08T20:01:01.613Z,9.50
2023-03-08T20:03:29.809Z,10.03
2023-03-08T20:06:00.503Z,9.63
2023-03-08T20:08:29.047Z,9.40
2023-03-08T20:10:57.540Z,9.43
2023-03-08T20:13:28.103Z,9.63
2023-03-08T20:15:56.815Z,9.03
2023-03-08T20:18:25.721Z,9.00
2023-03-08T20:20:53.982Z,8.70
2023-03-08T20:23:22.180Z,9.80
2023-03-08T20:25:52.846Z,10.10
2023-03-08T20:28:21.271Z,9.60
2023-03-08T20:30:53.220Z,8.53
2023-03-08T20:33:21.945Z,9.17
2023-03-08T20:35:59.301Z,8.67
2023-03-08T20:38:27.965Z,9.73
2023-03-08T20:41:03.151Z,9.63
2023-03-08T20:43:32.485Z,9.67
2023-03-08T20:46:06.313Z,9.97
2023-03-08T20:48:38.616Z,9.40
2023-03-08T20:51:08.854Z,11.17
2023-03-08T20:53:37.070Z,10.03
2023-03-08T20:56:06.905Z,10.07
2023-03-08T20:58:35.370Z,10.40
2023-03-08T21:01:13.595Z,11.10
2023-03-08T21:03:42.134Z,9.60
2023-03-08T21:06:15.098Z,11.00
2023-03-08T21:08:43.264Z,10.77
2023-03-08T21:11:12.125Z,11.17
2023-03-08T21:13:43.033Z,10.93
2023-03-08T21:16:15.625Z,11.37
2023-03-08T21:18:45.846Z,10.97
2023-03-08T21:21:27.306Z,9.97
2023-03-08T21:23:57.048Z,11.50
2023-03-08T21:26:28.892Z,11.63
2023-03-08T21:29:01.633Z,12.07
2023-03-08T21:31:36.452Z,11.63
2023-03-08T21:34:06.528Z,11.13
2023-03-08T21:36:38.494Z,12.67
2023-03-08T21:39:10.004Z,11.40
2023-03-08T21:41:40.640Z,12.43
2023-03-08T21:44:12.333Z,13.13
2023-03-08T21:46:42.526Z,12.67
2023-03-08T21:49:17.773Z,12.83
2023-03-08T21:51:46.199Z,13.10
2023-03-08T21:54:14.706Z,13.23
2023-03-08T21:56:45.416Z,13.03
2023-03-08T21:59:16.737Z,12.47
2023-03-08T22:01:50.939Z,13.63
2023-03-08T22:04:19.129Z,13.83
2023-03-08T22:06:47.409Z,13.53
2023-03-08T22:09:17.928Z,14.50
2023-03-08T22:11:46.051Z,13.80
2023-03-08T22:14:16.513Z,13.43
2023-03-08T22:16:44.623Z,14.57
2023-03-08T22:19:17.976Z,13.30
2023-03-08T22:21:48.504Z,13.33
2023-03-08T22:24:19.156Z,14.43
2023-03-08T22:26:49.288Z,15.20
2023-03-08T22:29:19.493Z,14.37
2023-03-08T22:31:47.674Z,14.43
2023-03-08T22:34:19.685Z,16.37
2023-03-08T22:36:47.910Z,13.83
2023-03-08T22:39:16.549Z,14.53
2023-03-08T22:41:47.718Z,14.70
2023-03-08T22:44:17.340Z,16.13
2023-03-08T22:46:45.494Z,16.93
2023-03-08T22:49:15.465Z,16.87
2023-03-08T22:51:46.477Z,16.53
2023-03-08T22:54:18.092Z,15.67
2023-03-08T22:56:48.777Z,15.00
2023-03-08T22:59:18.024Z,14.00
2023-03-08T23:01:46.261Z,13.93
2023-03-08T23:04:14.658Z,14.43
2023-03-08T23:06:42.816Z,15.50
2023-03-08T23:09:14.044Z,14.47
2023-03-08T23:11:43.116Z,14.70
2023-03-08T23:14:13.700Z,15.57
2023-03-08T23:16:43.240Z,15.20
2023-03-08T23:19:14.059Z,15.40
2023-03-08T23:21:42.232Z,14.63
2023-03-08T23:24:14.726Z,15.60
2023-03-08T23:26:45.836Z,15.30
2023-03-08T23:29:15.153Z,15.63
2023-03-08T23:31:45.569Z,15.90
2023-03-08T23:34:13.856Z,15.40
2023-03-08T23:36:42.539Z,16.07
2023-03-08T23:39:15.080Z,15.63
2023-03-08T23:41:45.315Z,16.07
2023-03-08T23:44:13.639Z,16.70
2023-03-08T23:46:46.068Z,16.97
2023-03-08T23:49:17.358Z,17.40
2023-03-08T23:51:46.200Z,15.27
2023-03-08T23:54:15.680Z,16.00
2023-03-08T23:56:44.695Z,16.50
2023-03-08T23:59:18.712Z,15.50
